Buoy 22628

sailwx.info

Track history (hours):
 
Tides and Currents Weather Stations Pressure Air Temp Water Temp Dewpoint Dewpoint Depression Visibility Wind Speed Wind Dir Waves Ship Positions

Drifting buoy 22628

Last reported at 2018-Apr-23 13:00 UTC. Time now 2018-Apr-23 15:22 UTC.
Position N 31°53' W 131°17'.

Barometer 1021.0 mb
Water temperature 17.3 ° C

Date/timePositionNaut miles runAvg speedWind from/ knotsBaromVisibWave heightAir tempDewpointWater temp
2018-Apr-23 13:00N 31°53' W 131°17'0 0.0 1021.0 17.3
2018-Apr-23 12:00N 31°53' W 131°17'0 0.0 1020.7 17.3
2018-Apr-23 11:00N 31°53' W 131°17'0 0.0 1021.1 17.3
2018-Apr-23 10:00N 31°53' W 131°17'0 0.0 1021.3 17.3
2018-Apr-23 07:00N 31°53' W 131°17'1 0.6 1022.2 17.2
2018-Apr-23 06:00N 31°54' W 131°17'0 0.0 1022.7 17.3
2018-Apr-23 05:00N 31°54' W 131°17'2 1.6 1022.5 17.4
2018-Apr-23 04:00N 31°55' W 131°16'1 0.5 1022.4 17.5
2018-Apr-23 03:00N 31°55' W 131°17'1 1.3 1022.1 17.5
2018-Apr-23 02:00N 31°56' W 131°16'1 0.6 1022.0 17.4
2018-Apr-23 01:00N 31°57' W 131°16'1 1.2 1022.5 17.3
2018-Apr-23 00:00N 31°58' W 131°16'0 0.0 1022.6 17.0
2018-Apr-22 23:00N 31°58' W 131°16'0 0.0 1022.8 16.9
2018-Apr-22 22:00N 31°58' W 131°16'3 1.5 1023.1 16.8
2018-Apr-22 20:00N 32°01' W 131°16'0 0.0 1024.7 16.7
2018-Apr-22 19:00N 32°01' W 131°16'1 1.3 1025.1 16.7
2018-Apr-22 18:00N 32°02' W 131°15'1 0.8 1025.1 16.7
2018-Apr-22 17:00N 32°03' W 131°16'0 0.0 1025.1 16.6
2018-Apr-22 16:00N 32°03' W 131°16'1 0.6 1025.1 16.6
2018-Apr-22 15:00N 32°04' W 131°16'1 1.3 1024.8 16.6
2018-Apr-22 14:00N 32°05' W 131°15'3 3.1 1024.5 16.6
2018-Apr-22 13:00N 32°07' W 131°13'0 0.0 1024.3 16.6
2018-Apr-22 12:00N 32°07' W 131°13'0 0.0 1024.6 16.6
2018-Apr-22 11:00N 32°07' W 131°13'0 0.0 1025.0 16.6
2018-Apr-22 10:00N 32°07' W 131°13'2 0.4 1025.3 16.6
2018-Apr-22 06:00N 32°08' W 131°11'0 0.0 1026.7 16.6
2018-Apr-22 05:00N 32°08' W 131°11'1 0.8 1026.7 16.6
2018-Apr-22 04:00N 32°09' W 131°11'2 1.6 1026.4 16.7
2018-Apr-22 03:00N 32°10' W 131°10'0 0.0 1026.3 16.6
2018-Apr-22 02:00N 32°10' W 131°10'1 1.3 1026.4 16.6
2018-Apr-22 01:00N 32°11' W 131°09'0 0.0 1026.3 16.7
2018-Apr-22 00:00N 32°11' W 131°09'2 1.6 1026.4 16.7
2018-Apr-21 23:00N 32°13' W 131°08'3 3.0 1027.0 16.7
2018-Apr-21 22:00N 32°16' W 131°08'2 0.5 1027.8 16.7
2018-Apr-21 18:00N 32°17' W 131°08'1 1.3 1029.1 16.6
2018-Apr-21 17:00N 32°19' W 131°08'1 1.2 1028.9 16.6
2018-Apr-21 16:00N 32°18' W 131°07'0 0.0 1028.9 16.6
2018-Apr-21 15:00N 32°18' W 131°07'2 1.9 1028.2 16.6
2018-Apr-21 14:00N 32°19' W 131°09'1 0.8 1027.8 16.6
2018-Apr-21 13:00N 32°20' W 131°10'0 0.0 1027.7 16.7
2018-Apr-21 12:00N 32°20' W 131°10'1 1.3 1028.0 16.7
2018-Apr-21 11:00N 32°21' W 131°09'0 0.0 1028.1 16.7
2018-Apr-21 07:00N 32°21' W 131°09'1 0.8 1029.1 16.7
2018-Apr-21 06:00N 32°22' W 131°08'1 0.8 1029.1 16.7
2018-Apr-21 05:00N 32°22' W 131°08'1 0.8 1028.8 16.8
2018-Apr-21 04:00N 32°23' W 131°07'1 1.3 1028.0 16.8
2018-Apr-21 03:00N 32°24' W 131°07'0 0.0 1028.0 16.8
2018-Apr-21 02:00N 32°24' W 131°07'1 0.6 1028.0 16.8
2018-Apr-21 01:00N 32°25' W 131°07'1 0.8 1028.2 16.9
2018-Apr-21 00:00N 32°25' W 131°06'0 0.0 1028.3 16.9
2018-Apr-20 23:00N 32°25' W 131°06'1 0.8 1029.0 16.9
2018-Apr-20 22:00N 32°26' W 131°05'0 0.0 1029.2 16.9
2018-Apr-20 19:00N 32°26' W 131°05'1 0.8 1029.7 17.0
2018-Apr-20 18:00N 32°25' W 131°06'1 0.5 1029.5 16.9
2018-Apr-20 17:00N 32°25' W 131°05'1 1.2 1029.2 16.9
2018-Apr-20 16:00N 32°25' W 131°04'0 0.0 1028.6 16.9
2018-Apr-20 15:00N 32°25' W 131°04'1 0.6 1027.9 17.0
2018-Apr-20 14:00N 32°24' W 131°04'1 0.8 1027.6 17.1
2018-Apr-20 13:00N 32°23' W 131°04'0 0.0 1027.6 17.2
2018-Apr-20 12:00N 32°23' W 131°04'2 1.9 1027.8 17.2
2018-Apr-20 11:00N 32°22' W 131°03'1 0.2 1028.0 17.2
2018-Apr-20 06:00N 32°21' W 131°02'1 0.6 1028.6 17.1
2018-Apr-20 05:00N 32°20' W 131°02'0 0.0 1028.0 17.1
2018-Apr-20 04:00N 32°20' W 131°02'1 0.5 1027.8 17.1
2018-Apr-20 03:00N 32°20' W 131°03'1 0.5 1027.3 17.1
2018-Apr-20 02:00N 32°20' W 131°02'1 0.6 1027.2 17.1
2018-Apr-20 01:00N 32°20' W 131°02'0 0.0 1027.2 17.1
2018-Apr-20 00:00N 32°20' W 131°02'0 0.0 1027.5 17.1
2018-Apr-19 23:00N 32°20' W 131°02'0 0.0 1027.9 17.1
2018-Apr-19 22:00N 32°20' W 131°02'1 0.3 1028.2 17.2
2018-Apr-19 19:00N 32°19' W 131°02'1 0.5 1028.5 17.0
2018-Apr-19 18:00N 32°19' W 131°02'1 0.5 1028.2 17.0
2018-Apr-19 17:00N 32°19' W 131°02'0 0.0 1027.9 17.0
2018-Apr-19 16:00N 32°19' W 131°02'0 0.0 1027.6 17.0
2018-Apr-19 15:00N 32°19' W 131°02'1 0.5 1026.8 17.0
2018-Apr-19 14:00N 32°19' W 131°01'0 0.0 1026.2 17.0
2018-Apr-19 13:00N 32°19' W 131°01'1 1.2 1025.9 17.0
2018-Apr-19 12:00N 32°20' W 131°01'0 0.0 1025.6 17.0
2018-Apr-19 11:00N 32°20' W 131°01'0 0.0 1025.2 17.0
2018-Apr-19 07:00N 32°20' W 131°01'1 0.8 1025.6 17.0
2018-Apr-19 06:00N 32°21' W 131°02'1 1.2 1025.4 17.0
2018-Apr-19 05:00N 32°22' W 131°01'1 1.0 1024.6 17.1
2018-Apr-19 04:00N 32°22' W 131°02'1 0.8 1023.8 17.1
2018-Apr-19 03:00N 32°22' W 131°01'1 0.6 1023.5 17.1
2018-Apr-19 02:00N 32°23' W 131°01'0 0.0 1023.0 17.1
2018-Apr-19 01:00N 32°23' W 131°01'1 0.5 1022.8 17.0
2018-Apr-19 00:00N 32°23' W 131°02'0 0.0 1022.7 17.0
2018-Apr-18 23:00N 32°23' W 131°02'2 0.5 1023.2 17.0
2018-Apr-18 19:00N 32°23' W 131°04'1 0.5 1024.7 17.0
2018-Apr-18 18:00N 32°23' W 131°04'1 0.8 1024.6 17.0
2018-Apr-18 17:00N 32°23' W 131°04'1 0.8 1024.5 17.1
2018-Apr-18 16:00N 32°22' W 131°05'0 0.0 1024.1 17.1
2018-Apr-18 15:00N 32°22' W 131°05'1 0.5 1023.8 17.1
2018-Apr-18 14:00N 32°22' W 131°04'2 2.1 1023.4 17.1
2018-Apr-18 13:00N 32°22' W 131°07'0 0.0 1023.2 17.1
2018-Apr-18 12:00N 32°22' W 131°07'4 4.3 1023.6 17.1
2018-Apr-18 11:00N 32°19' W 131°10'1 0.2 1023.8 17.1
2018-Apr-18 06:00N 32°18' W 131°09'2 1.6 1025.7 17.3
2018-Apr-18 05:00N 32°17' W 131°11'1 0.8 1025.8 17.4
2018-Apr-18 04:00N 32°17' W 131°11'1 0.5 1025.5 17.4
2018-Apr-18 03:00N 32°17' W 131°12'1 0.6 1025.3 17.5
2018-Apr-18 02:00N 32°16' W 131°12'1 0.6 1025.4 17.6
2018-Apr-18 01:00N 32°16' W 131°12'1 0.8 1025.9 17.6
2018-Apr-18 00:00N 32°15' W 131°13'0 0.0 1026.5 17.6
2018-Apr-17 23:00N 32°15' W 131°13'2 0.5 1027.2 17.5
2018-Apr-17 20:00N 32°14' W 131°11'0 0.0 1029.0 17.3
2018-Apr-17 19:00N 32°14' W 131°11'1 0.6 1029.2 17.2
2018-Apr-17 18:00N 32°14' W 131°11'1 0.5 1029.2 17.1
2018-Apr-17 17:00N 32°14' W 131°11'0 0.0 1029.1 17.0
2018-Apr-17 16:00N 32°14' W 131°11'2 1.6 1028.7 17.0
2018-Apr-17 15:00N 32°15' W 131°13'1 0.6 1028.1 17.0
2018-Apr-17 14:00N 32°16' W 131°13'0 0.0 1027.5 17.0
2018-Apr-17 13:00N 32°16' W 131°13'1 0.8 1027.4 17.0
2018-Apr-17 12:00N 32°16' W 131°13'0 0.0 1027.5 17.0
2018-Apr-17 11:00N 32°16' W 131°13'1 0.2 1027.9 17.0
2018-Apr-17 06:00N 32°16' W 131°12'0 0.0 1028.5 17.0
2018-Apr-17 05:00N 32°16' W 131°12'0 0.0 1027.9 16.9
2018-Apr-17 04:00N 32°16' W 131°12'1 0.8 1027.6 16.8
2018-Apr-17 03:00N 32°16' W 131°11'0 0.0 1027.0 16.8
2018-Apr-17 02:00N 32°16' W 131°11'1 0.5 1026.8 16.8
2018-Apr-17 01:00N 32°16' W 131°12'2 1.6 1026.7 16.8
2018-Apr-17 00:00N 32°17' W 131°11'0 0.0 1026.6 16.8
2018-Apr-16 23:00N 32°17' W 131°11'2 0.9 1026.8 16.8
2018-Apr-16 21:00N 32°19' W 131°10'1 0.5 1027.1 16.8
2018-Apr-16 19:00N 32°19' W 131°09'2 1.6 1027.3 16.8
2018-Apr-16 18:00N 32°20' W 131°10'1 1.0 1026.6 16.9
2018-Apr-16 17:00N 32°20' W 131°09'2 1.6 1026.1 16.9
2018-Apr-16 16:00N 32°20' W 131°11'1 0.5 1025.6 17.0
2018-Apr-16 15:00N 32°20' W 131°11'1 0.6 1025.0 17.0
2018-Apr-16 14:00N 32°21' W 131°11'1 1.2 1024.6 17.1
2018-Apr-16 13:00N 32°22' W 131°13'3 2.6 1024.3 17.0
2018-Apr-16 12:00N 32°22' W 131°16'0 0.0 1024.1 16.9
2018-Apr-16 07:00N 32°22' W 131°16'1 0.6 1024.5 16.9
2018-Apr-16 06:00N 32°22' W 131°16'2 1.6 1024.2 16.9
2018-Apr-16 05:00N 32°22' W 131°17'0 0.0 1023.6 16.9
2018-Apr-16 04:00N 32°22' W 131°17'1 0.8 1023.2 16.9
2018-Apr-16 03:00N 32°22' W 131°18'1 0.5 1022.7 16.7
2018-Apr-16 02:00N 32°22' W 131°17'1 0.8 1022.4 16.5
2018-Apr-16 01:00N 32°22' W 131°18'0 0.0 1022.3 16.5
2018-Apr-16 00:00N 32°22' W 131°18'1 1.2 1022.4 16.4
2018-Apr-15 23:00N 32°23' W 131°19'0 0.0 1022.8 16.4
2018-Apr-15 22:00N 32°23' W 131°19'2 2.4 1023.4 16.4
2018-Apr-15 21:00N 32°25' W 131°19'1 0.3 1023.7 16.6
2018-Apr-15 19:00N 32°25' W 131°19'1 1.2 1024.3 16.9
2018-Apr-15 18:00N 32°26' W 131°20'1 0.6 1024.1 16.8
2018-Apr-15 17:00N 32°26' W 131°20'2 1.9 1023.7 16.6
2018-Apr-15 16:00N 32°28' W 131°22'1 0.5 1023.5 16.6
2018-Apr-15 15:00N 32°28' W 131°22'1 0.5 1023.0 16.5
2018-Apr-15 14:00N 32°28' W 131°23'2 1.6 1022.9 16.4
2018-Apr-15 13:00N 32°28' W 131°25'0 0.0 1023.0 16.5
2018-Apr-15 12:00N 32°28' W 131°25'3 1.5 1023.3 16.5
2018-Apr-15 10:00N 32°28' W 131°28'1 0.1 1024.8 16.6
2018-Apr-15 06:00N 32°28' W 131°28'1 0.8 1026.9 16.6
2018-Apr-15 05:00N 32°28' W 131°29'0 0.0 1026.9 16.6
2018-Apr-15 04:00N 32°28' W 131°29'0 0.0 1026.7 16.7
2018-Apr-15 03:00N 32°28' W 131°29'1 0.8 1026.4 16.7
2018-Apr-15 02:00N 32°28' W 131°29'2 0.8 1026.4 16.8
2018-Apr-15 00:00N 32°29' W 131°28'0 0.0 1027.7 16.7
2018-Apr-14 23:00N 32°29' W 131°28'0 0.0 1028.6 16.7
2018-Apr-14 22:00N 32°29' W 131°28'2 0.6 1029.4 16.7
2018-Apr-14 19:00N 32°31' W 131°28'1 0.6 1031.2 16.7
2018-Apr-14 18:00N 32°31' W 131°28'1 1.2 1031.0 16.6
2018-Apr-14 17:00N 32°32' W 131°28'1 0.5 1030.6 16.6
2018-Apr-14 16:00N 32°32' W 131°29'0 0.0 1030.2 16.6
2018-Apr-14 15:00N 32°32' W 131°29'1 0.5 1030.0 16.7
2018-Apr-14 14:00N 32°32' W 131°29'1 1.2 1029.8 16.7
2018-Apr-14 13:00N 32°34' W 131°29'1 0.5 1030.1 16.7
2018-Apr-14 12:00N 32°34' W 131°30'0 0.0 1030.3 16.7
2018-Apr-14 11:00N 32°34' W 131°30'1 0.8 1030.8 16.7
2018-Apr-14 10:00N 32°33' W 131°31'1 0.2 1031.6 16.7
2018-Apr-14 06:00N 32°32' W 131°30'2 1.6 1032.9 16.6
2018-Apr-14 05:00N 32°33' W 131°28'1 0.6 1032.6 16.6
2018-Apr-14 04:00N 32°32' W 131°28'1 0.5 1032.1 16.6
2018-Apr-14 03:00N 32°32' W 131°28'1 1.0 1031.8 16.6
2018-Apr-14 02:00N 32°32' W 131°26'1 0.8 1031.6 16.7
2018-Apr-14 01:00N 32°33' W 131°27'0 0.0 1031.8 16.7
2018-Apr-14 00:00N 32°33' W 131°27'1 1.0 1031.7 16.7
2018-Apr-13 23:00N 32°33' W 131°26'0 0.0 1032.3 16.8
2018-Apr-13 22:00N 32°33' W 131°26'2 0.7 1032.7 16.8
2018-Apr-13 19:00N 32°35' W 131°25'1 0.6 1033.3 16.6
2018-Apr-13 18:00N 32°35' W 131°25'0 0.0 1032.9 16.6
2018-Apr-13 17:00N 32°35' W 131°25'1 0.5 1033.0 16.5
2018-Apr-13 16:00N 32°35' W 131°25'1 0.8 1032.4 16.5
2018-Apr-13 15:00N 32°36' W 131°26'1 0.5 1031.8 16.5
2018-Apr-13 14:00N 32°36' W 131°25'1 0.8 1031.6 16.5
2018-Apr-13 13:00N 32°37' W 131°26'   1031.4 16.5
Track history (hours):
 
Tides and Currents Weather Stations Pressure Air Temp Water Temp Dewpoint Dewpoint Depression Visibility Wind Speed Wind Dir Waves Ship Positions

Drifting buoy 22628

Last reported at 2018-Apr-23 13:00 UTC. Time now 2018-Apr-23 15:22 UTC.
Position N 31°53' W 131°17'.

Barometer 1021.0 mb
Water temperature 17.3 ° C

Date/timePositionNaut miles runAvg speedWind from/ knotsBaromVisibWave heightAir tempDewpointWater temp
2018-Apr-23 13:00N 31°53' W 131°17'0 0.0 1021.0 17.3
2018-Apr-23 12:00N 31°53' W 131°17'0 0.0 1020.7 17.3
2018-Apr-23 11:00N 31°53' W 131°17'0 0.0 1021.1 17.3
2018-Apr-23 10:00N 31°53' W 131°17'0 0.0 1021.3 17.3
2018-Apr-23 07:00N 31°53' W 131°17'1 0.6 1022.2 17.2
2018-Apr-23 06:00N 31°54' W 131°17'0 0.0 1022.7 17.3
2018-Apr-23 05:00N 31°54' W 131°17'2 1.6 1022.5 17.4
2018-Apr-23 04:00N 31°55' W 131°16'1 0.5 1022.4 17.5
2018-Apr-23 03:00N 31°55' W 131°17'1 1.3 1022.1 17.5
2018-Apr-23 02:00N 31°56' W 131°16'1 0.6 1022.0 17.4
2018-Apr-23 01:00N 31°57' W 131°16'1 1.2 1022.5 17.3
2018-Apr-23 00:00N 31°58' W 131°16'0 0.0 1022.6 17.0
2018-Apr-22 23:00N 31°58' W 131°16'0 0.0 1022.8 16.9
2018-Apr-22 22:00N 31°58' W 131°16'3 1.5 1023.1 16.8
2018-Apr-22 20:00N 32°01' W 131°16'0 0.0 1024.7 16.7
2018-Apr-22 19:00N 32°01' W 131°16'1 1.3 1025.1 16.7
2018-Apr-22 18:00N 32°02' W 131°15'1 0.8 1025.1 16.7
2018-Apr-22 17:00N 32°03' W 131°16'0 0.0 1025.1 16.6
2018-Apr-22 16:00N 32°03' W 131°16'1 0.6 1025.1 16.6
2018-Apr-22 15:00N 32°04' W 131°16'1 1.3 1024.8 16.6
2018-Apr-22 14:00N 32°05' W 131°15'3 3.1 1024.5 16.6
2018-Apr-22 13:00N 32°07' W 131°13'0 0.0 1024.3 16.6
2018-Apr-22 12:00N 32°07' W 131°13'0 0.0 1024.6 16.6
2018-Apr-22 11:00N 32°07' W 131°13'0 0.0 1025.0 16.6
2018-Apr-22 10:00N 32°07' W 131°13'2 0.4 1025.3 16.6
2018-Apr-22 06:00N 32°08' W 131°11'0 0.0 1026.7 16.6
2018-Apr-22 05:00N 32°08' W 131°11'1 0.8 1026.7 16.6
2018-Apr-22 04:00N 32°09' W 131°11'2 1.6 1026.4 16.7
2018-Apr-22 03:00N 32°10' W 131°10'0 0.0 1026.3 16.6
2018-Apr-22 02:00N 32°10' W 131°10'1 1.3 1026.4 16.6
2018-Apr-22 01:00N 32°11' W 131°09'0 0.0 1026.3 16.7
2018-Apr-22 00:00N 32°11' W 131°09'2 1.6 1026.4 16.7
2018-Apr-21 23:00N 32°13' W 131°08'3 3.0 1027.0 16.7
2018-Apr-21 22:00N 32°16' W 131°08'2 0.5 1027.8 16.7
2018-Apr-21 18:00N 32°17' W 131°08'1 1.3 1029.1 16.6
2018-Apr-21 17:00N 32°19' W 131°08'1 1.2 1028.9 16.6
2018-Apr-21 16:00N 32°18' W 131°07'0 0.0 1028.9 16.6
2018-Apr-21 15:00N 32°18' W 131°07'2 1.9 1028.2 16.6
2018-Apr-21 14:00N 32°19' W 131°09'1 0.8 1027.8 16.6
2018-Apr-21 13:00N 32°20' W 131°10'0 0.0 1027.7 16.7
2018-Apr-21 12:00N 32°20' W 131°10'1 1.3 1028.0 16.7
2018-Apr-21 11:00N 32°21' W 131°09'0 0.0 1028.1 16.7
2018-Apr-21 07:00N 32°21' W 131°09'1 0.8 1029.1 16.7
2018-Apr-21 06:00N 32°22' W 131°08'1 0.8 1029.1 16.7
2018-Apr-21 05:00N 32°22' W 131°08'1 0.8 1028.8 16.8
2018-Apr-21 04:00N 32°23' W 131°07'1 1.3 1028.0 16.8
2018-Apr-21 03:00N 32°24' W 131°07'0 0.0 1028.0 16.8
2018-Apr-21 02:00N 32°24' W 131°07'1 0.6 1028.0 16.8
2018-Apr-21 01:00N 32°25' W 131°07'1 0.8 1028.2 16.9
2018-Apr-21 00:00N 32°25' W 131°06'0 0.0 1028.3 16.9
2018-Apr-20 23:00N 32°25' W 131°06'1 0.8 1029.0 16.9
2018-Apr-20 22:00N 32°26' W 131°05'0 0.0 1029.2 16.9
2018-Apr-20 19:00N 32°26' W 131°05'1 0.8 1029.7 17.0
2018-Apr-20 18:00N 32°25' W 131°06'1 0.5 1029.5 16.9
2018-Apr-20 17:00N 32°25' W 131°05'1 1.2 1029.2 16.9
2018-Apr-20 16:00N 32°25' W 131°04'0 0.0 1028.6 16.9
2018-Apr-20 15:00N 32°25' W 131°04'1 0.6 1027.9 17.0
2018-Apr-20 14:00N 32°24' W 131°04'1 0.8 1027.6 17.1
2018-Apr-20 13:00N 32°23' W 131°04'0 0.0 1027.6 17.2
2018-Apr-20 12:00N 32°23' W 131°04'2 1.9 1027.8 17.2
2018-Apr-20 11:00N 32°22' W 131°03'1 0.2 1028.0 17.2
2018-Apr-20 06:00N 32°21' W 131°02'1 0.6 1028.6 17.1
2018-Apr-20 05:00N 32°20' W 131°02'0 0.0 1028.0 17.1
2018-Apr-20 04:00N 32°20' W 131°02'1 0.5 1027.8 17.1
2018-Apr-20 03:00N 32°20' W 131°03'1 0.5 1027.3 17.1
2018-Apr-20 02:00N 32°20' W 131°02'1 0.6 1027.2 17.1
2018-Apr-20 01:00N 32°20' W 131°02'0 0.0 1027.2 17.1
2018-Apr-20 00:00N 32°20' W 131°02'0 0.0 1027.5 17.1
2018-Apr-19 23:00N 32°20' W 131°02'0 0.0 1027.9 17.1
2018-Apr-19 22:00N 32°20' W 131°02'1 0.3 1028.2 17.2
2018-Apr-19 19:00N 32°19' W 131°02'1 0.5 1028.5 17.0
2018-Apr-19 18:00N 32°19' W 131°02'1 0.5 1028.2 17.0
2018-Apr-19 17:00N 32°19' W 131°02'0 0.0 1027.9 17.0
2018-Apr-19 16:00N 32°19' W 131°02'0 0.0 1027.6 17.0
2018-Apr-19 15:00N 32°19' W 131°02'1 0.5 1026.8 17.0
2018-Apr-19 14:00N 32°19' W 131°01'0 0.0 1026.2 17.0
2018-Apr-19 13:00N 32°19' W 131°01'1 1.2 1025.9 17.0
2018-Apr-19 12:00N 32°20' W 131°01'0 0.0 1025.6 17.0
2018-Apr-19 11:00N 32°20' W 131°01'0 0.0 1025.2 17.0
2018-Apr-19 07:00N 32°20' W 131°01'1 0.8 1025.6 17.0
2018-Apr-19 06:00N 32°21' W 131°02'1 1.2 1025.4 17.0
2018-Apr-19 05:00N 32°22' W 131°01'1 1.0 1024.6 17.1
2018-Apr-19 04:00N 32°22' W 131°02'1 0.8 1023.8 17.1
2018-Apr-19 03:00N 32°22' W 131°01'1 0.6 1023.5 17.1
2018-Apr-19 02:00N 32°23' W 131°01'0 0.0 1023.0 17.1
2018-Apr-19 01:00N 32°23' W 131°01'1 0.5 1022.8 17.0
2018-Apr-19 00:00N 32°23' W 131°02'0 0.0 1022.7 17.0
2018-Apr-18 23:00N 32°23' W 131°02'2 0.5 1023.2 17.0
2018-Apr-18 19:00N 32°23' W 131°04'1 0.5 1024.7 17.0
2018-Apr-18 18:00N 32°23' W 131°04'1 0.8 1024.6 17.0
2018-Apr-18 17:00N 32°23' W 131°04'1 0.8 1024.5 17.1
2018-Apr-18 16:00N 32°22' W 131°05'0 0.0 1024.1 17.1
2018-Apr-18 15:00N 32°22' W 131°05'1 0.5 1023.8 17.1
2018-Apr-18 14:00N 32°22' W 131°04'2 2.1 1023.4 17.1
2018-Apr-18 13:00N 32°22' W 131°07'0 0.0 1023.2 17.1
2018-Apr-18 12:00N 32°22' W 131°07'4 4.3 1023.6 17.1
2018-Apr-18 11:00N 32°19' W 131°10'1 0.2 1023.8 17.1
2018-Apr-18 06:00N 32°18' W 131°09'2 1.6 1025.7 17.3
2018-Apr-18 05:00N 32°17' W 131°11'1 0.8 1025.8 17.4
2018-Apr-18 04:00N 32°17' W 131°11'1 0.5 1025.5 17.4
2018-Apr-18 03:00N 32°17' W 131°12'1 0.6 1025.3 17.5
2018-Apr-18 02:00N 32°16' W 131°12'1 0.6 1025.4 17.6
2018-Apr-18 01:00N 32°16' W 131°12'1 0.8 1025.9 17.6
2018-Apr-18 00:00N 32°15' W 131°13'0 0.0 1026.5 17.6
2018-Apr-17 23:00N 32°15' W 131°13'2 0.5 1027.2 17.5
2018-Apr-17 20:00N 32°14' W 131°11'0 0.0 1029.0 17.3
2018-Apr-17 19:00N 32°14' W 131°11'1 0.6 1029.2 17.2
2018-Apr-17 18:00N 32°14' W 131°11'1 0.5 1029.2 17.1
2018-Apr-17 17:00N 32°14' W 131°11'0 0.0 1029.1 17.0
2018-Apr-17 16:00N 32°14' W 131°11'2 1.6 1028.7 17.0
2018-Apr-17 15:00N 32°15' W 131°13'1 0.6 1028.1 17.0
2018-Apr-17 14:00N 32°16' W 131°13'0 0.0 1027.5 17.0
2018-Apr-17 13:00N 32°16' W 131°13'1 0.8 1027.4 17.0
2018-Apr-17 12:00N 32°16' W 131°13'0 0.0 1027.5 17.0
2018-Apr-17 11:00N 32°16' W 131°13'1 0.2 1027.9 17.0
2018-Apr-17 06:00N 32°16' W 131°12'0 0.0 1028.5 17.0
2018-Apr-17 05:00N 32°16' W 131°12'0 0.0 1027.9 16.9
2018-Apr-17 04:00N 32°16' W 131°12'1 0.8 1027.6 16.8
2018-Apr-17 03:00N 32°16' W 131°11'0 0.0 1027.0 16.8
2018-Apr-17 02:00N 32°16' W 131°11'1 0.5 1026.8 16.8
2018-Apr-17 01:00N 32°16' W 131°12'2 1.6 1026.7 16.8
2018-Apr-17 00:00N 32°17' W 131°11'0 0.0 1026.6 16.8
2018-Apr-16 23:00N 32°17' W 131°11'2 0.9 1026.8 16.8
2018-Apr-16 21:00N 32°19' W 131°10'1 0.5 1027.1 16.8
2018-Apr-16 19:00N 32°19' W 131°09'2 1.6 1027.3 16.8
2018-Apr-16 18:00N 32°20' W 131°10'1 1.0 1026.6 16.9
2018-Apr-16 17:00N 32°20' W 131°09'2 1.6 1026.1 16.9
2018-Apr-16 16:00N 32°20' W 131°11'1 0.5 1025.6 17.0
2018-Apr-16 15:00N 32°20' W 131°11'1 0.6 1025.0 17.0
2018-Apr-16 14:00N 32°21' W 131°11'1 1.2 1024.6 17.1
2018-Apr-16 13:00N 32°22' W 131°13'3 2.6 1024.3 17.0
2018-Apr-16 12:00N 32°22' W 131°16'0 0.0 1024.1 16.9
2018-Apr-16 07:00N 32°22' W 131°16'1 0.6 1024.5 16.9
2018-Apr-16 06:00N 32°22' W 131°16'2 1.6 1024.2 16.9
2018-Apr-16 05:00N 32°22' W 131°17'0 0.0 1023.6 16.9
2018-Apr-16 04:00N 32°22' W 131°17'1 0.8 1023.2 16.9
2018-Apr-16 03:00N 32°22' W 131°18'1 0.5 1022.7 16.7
2018-Apr-16 02:00N 32°22' W 131°17'1 0.8 1022.4 16.5
2018-Apr-16 01:00N 32°22' W 131°18'0 0.0 1022.3 16.5
2018-Apr-16 00:00N 32°22' W 131°18'1 1.2 1022.4 16.4
2018-Apr-15 23:00N 32°23' W 131°19'0 0.0 1022.8 16.4
2018-Apr-15 22:00N 32°23' W 131°19'2 2.4 1023.4 16.4
2018-Apr-15 21:00N 32°25' W 131°19'1 0.3 1023.7 16.6
2018-Apr-15 19:00N 32°25' W 131°19'1 1.2 1024.3 16.9
2018-Apr-15 18:00N 32°26' W 131°20'1 0.6 1024.1 16.8
2018-Apr-15 17:00N 32°26' W 131°20'2 1.9 1023.7 16.6
2018-Apr-15 16:00N 32°28' W 131°22'1 0.5 1023.5 16.6
2018-Apr-15 15:00N 32°28' W 131°22'1 0.5 1023.0 16.5
2018-Apr-15 14:00N 32°28' W 131°23'2 1.6 1022.9 16.4
2018-Apr-15 13:00N 32°28' W 131°25'0 0.0 1023.0 16.5
2018-Apr-15 12:00N 32°28' W 131°25'3 1.5 1023.3 16.5
2018-Apr-15 10:00N 32°28' W 131°28'1 0.1 1024.8 16.6
2018-Apr-15 06:00N 32°28' W 131°28'1 0.8 1026.9 16.6
2018-Apr-15 05:00N 32°28' W 131°29'0 0.0 1026.9 16.6
2018-Apr-15 04:00N 32°28' W 131°29'0 0.0 1026.7 16.7
2018-Apr-15 03:00N 32°28' W 131°29'1 0.8 1026.4 16.7
2018-Apr-15 02:00N 32°28' W 131°29'2 0.8 1026.4 16.8
2018-Apr-15 00:00N 32°29' W 131°28'0 0.0 1027.7 16.7
2018-Apr-14 23:00N 32°29' W 131°28'0 0.0 1028.6 16.7
2018-Apr-14 22:00N 32°29' W 131°28'2 0.6 1029.4 16.7
2018-Apr-14 19:00N 32°31' W 131°28'1 0.6 1031.2 16.7
2018-Apr-14 18:00N 32°31' W 131°28'1 1.2 1031.0 16.6
2018-Apr-14 17:00N 32°32' W 131°28'1 0.5 1030.6 16.6
2018-Apr-14 16:00N 32°32' W 131°29'0 0.0 1030.2 16.6
2018-Apr-14 15:00N 32°32' W 131°29'1 0.5 1030.0 16.7
2018-Apr-14 14:00N 32°32' W 131°29'1 1.2 1029.8 16.7
2018-Apr-14 13:00N 32°34' W 131°29'1 0.5 1030.1 16.7
2018-Apr-14 12:00N 32°34' W 131°30'0 0.0 1030.3 16.7
2018-Apr-14 11:00N 32°34' W 131°30'1 0.8 1030.8 16.7
2018-Apr-14 10:00N 32°33' W 131°31'1 0.2 1031.6 16.7
2018-Apr-14 06:00N 32°32' W 131°30'2 1.6 1032.9 16.6
2018-Apr-14 05:00N 32°33' W 131°28'1 0.6 1032.6 16.6
2018-Apr-14 04:00N 32°32' W 131°28'1 0.5 1032.1 16.6
2018-Apr-14 03:00N 32°32' W 131°28'1 1.0 1031.8 16.6
2018-Apr-14 02:00N 32°32' W 131°26'1 0.8 1031.6 16.7
2018-Apr-14 01:00N 32°33' W 131°27'0 0.0 1031.8 16.7
2018-Apr-14 00:00N 32°33' W 131°27'1 1.0 1031.7 16.7
2018-Apr-13 23:00N 32°33' W 131°26'0 0.0 1032.3 16.8
2018-Apr-13 22:00N 32°33' W 131°26'2 0.7 1032.7 16.8
2018-Apr-13 19:00N 32°35' W 131°25'1 0.6 1033.3 16.6
2018-Apr-13 18:00N 32°35' W 131°25'0 0.0 1032.9 16.6
2018-Apr-13 17:00N 32°35' W 131°25'1 0.5 1033.0 16.5
2018-Apr-13 16:00N 32°35' W 131°25'1 0.8 1032.4 16.5
2018-Apr-13 15:00N 32°36' W 131°26'1 0.5 1031.8 16.5
2018-Apr-13 14:00N 32°36' W 131°25'1 0.8 1031.6 16.5
2018-Apr-13 13:00N 32°37' W 131°26'   1031.4 16.5

Dump ship's entire track history